Humidity-temperature Sensor

Selected Measurement Type: Relative Humidity

 
Relative Humidity [%]     6 entries per hour
Showing data from 11/24/2022 (00:00:00 Z) to 11/17/2022 (00:01:00 Z)
Previous Next [ Day | 3-Days | 7-Days ]
First Last
Prev [ Day | 3-Days | 7-Days ] Next
First Last

Start Time:     :
End Time:     :     
Time (in GMT) :00 :50 :40 :30 :20 :10
Previous Next [ Day | 3-Days | 7-Days ]
First Last
Prev [ Day | 3-Days | 7-Days ] Next
First Last


123 => good data
MM => data is determined as missing
-- => data not received/configured
Back to Top Back to Top
11/24/2022 00:00 to 23:10 88.79 88.99 89.26 89.44 89.71 90.39
11/23/2022 23:00 to 22:10 90.76 91.25 91.66 91.64 90.49 89.16
11/23/2022 22:00 to 21:10 88.62 88.87 88.97 88.74 88.56 88.58
11/23/2022 21:00 to 20:10 88.70 88.68 88.13 87.53 87.47 87.96
11/23/2022 20:00 to 19:10 88.27 89.16 89.57 90.24 89.65 89.73
11/23/2022 19:00 to 18:10 89.59 88.91 88.70 88.37 88.68 88.89
11/23/2022 18:00 to 17:10 89.63 89.79 90.31 90.49 91.25 91.83
11/23/2022 17:00 to 16:10 92.53 93.04 93.37 93.12 92.24 92.71
11/23/2022 16:00 to 15:10 93.08 92.90 92.44 92.03 90.47 88.48
11/23/2022 15:00 to 14:10 87.86 88.35 89.30 89.44 89.67 90.04
11/23/2022 14:00 to 13:10 89.81 89.98 90.08 90.37 90.66 90.94
11/23/2022 13:00 to 12:10 91.11 91.62 92.09 92.42 92.87 93.29
11/23/2022 12:00 to 11:10 92.79 92.18 91.46 91.68 91.93 91.58
11/23/2022 11:00 to 10:10 91.23 90.94 90.76 90.59 91.03 91.11
11/23/2022 10:00 to 9:10 90.84 91.25 91.35 91.07 90.39 90.39
11/23/2022 09:00 to 8:10 91.29 91.40 91.83 92.30 93.16 93.86
11/23/2022 08:00 to 7:10 94.17 94.11 93.64 93.14 92.34 91.72
11/23/2022 07:00 to 6:10 91.27 91.79 92.53 92.65 91.81 90.35
11/23/2022 06:00 to 5:10 88.99 89.44 89.34 89.13 88.68 88.52
11/23/2022 05:00 to 4:10 88.81 88.72 88.87 89.28 89.96 90.29
11/23/2022 04:00 to 3:10 90.45 90.29 90.18 89.90 89.81 90.35
11/23/2022 03:00 to 2:10 90.92 91.07 91.13 90.35 89.92 90.08
11/23/2022 02:00 to 1:10 89.77 89.92 89.81 89.87 90.27 90.78
11/23/2022 01:00 to 0:10 91.42 91.91 92.07 91.97 91.23 90.61
11/23/2022 00:00 to 23:10 90.66 90.43 90.29 90.72 91.07 91.60
11/22/2022 23:00 to 22:10 91.81 91.42 91.07 91.05 91.37 91.72
11/22/2022 22:00 to 21:10 92.63 92.83 93.08 92.65 92.34 91.70
11/22/2022 21:00 to 20:10 91.89 92.22 92.69 93.02 92.53 91.81
11/22/2022 20:00 to 19:10 91.27 91.64 91.87 91.83 92.01 92.98
11/22/2022 19:00 to 18:10 92.46 91.58 90.82 89.96 90.49 90.53
11/22/2022 18:00 to 17:10 90.45 90.22 90.27 90.06 89.92 90.04
11/22/2022 17:00 to 16:10 90.37 90.20 90.08 89.92 89.81 89.59
11/22/2022 16:00 to 15:10 89.87 89.83 89.65 89.77 90.20 90.61
11/22/2022 15:00 to 14:10 91.37 91.85 92.28 92.65 93.18 93.37
11/22/2022 14:00 to 13:10 93.72 93.86 94.15 94.07 94.42 94.89
11/22/2022 13:00 to 12:10 95.38 96.02 96.45 96.55 96.66 96.66
11/22/2022 12:00 to 11:10 96.39 96.29 97.19 97.19 97.44 97.66
11/22/2022 11:00 to 10:10 97.38 96.92 96.49 95.53 95.81 96.18
11/22/2022 10:00 to 9:10 96.24 95.83 95.26 94.40 93.72 93.49
11/22/2022 09:00 to 8:10 93.47 93.39 93.31 93.57 93.49 92.98
11/22/2022 08:00 to 7:10 92.96 93.12 93.18 93.61 94.03 94.52
11/22/2022 07:00 to 6:10 94.44 93.90 93.35 93.12 93.35 92.16
11/22/2022 06:00 to 5:10 91.35 91.19 91.00 91.17 91.62 91.77
11/22/2022 05:00 to 4:10 92.07 92.05 92.28 92.48 92.79 92.94
11/22/2022 04:00 to 3:10 93.12 93.04 92.57 92.83 92.98 92.94
11/22/2022 03:00 to 2:10 93.06 93.00 92.77 91.97 91.95 91.68
11/22/2022 02:00 to 1:10 91.85 91.97 91.74 92.11 91.91 92.01
11/22/2022 01:00 to 0:10 92.01 91.85 91.52 91.70 91.95 92.09
11/22/2022 00:00 to 23:10 92.16 92.14 92.20 92.53 92.61 91.93
11/21/2022 23:00 to 22:10 91.60 92.05 92.65 93.53 94.40 94.25
11/21/2022 22:00 to 21:10 94.72 94.97 95.05 94.31 93.94 94.31
11/21/2022 21:00 to 20:10 94.91 95.22 95.77 96.61 97.27 97.60
11/21/2022 20:00 to 19:10 97.99 98.40 98.59 99.06 99.59 99.94
11/21/2022 19:00 to 18:10 99.78 99.64 99.51 98.81 99.18 99.31
11/21/2022 18:00 to 17:10 99.45 99.39 98.96 98.51 98.18 97.97
11/21/2022 17:00 to 16:10 97.19 97.17 97.27 97.40 97.19 97.13
11/21/2022 16:00 to 15:10 97.54 97.52 97.52 97.17 97.66 98.48
11/21/2022 15:00 to 14:10 98.77 99.08 98.90 98.65 98.14 97.72
11/21/2022 14:00 to 13:10 97.95 98.18 98.26 98.05 97.68 97.89
11/21/2022 13:00 to 12:10 97.56 96.98 96.53 96.78 97.21 97.72
11/21/2022 12:00 to 11:10 98.36 98.92 99.47 100.01 100.15 100.42
11/21/2022 11:00 to 10:10 100.54 100.60 100.58 100.33 100.44 100.50
11/21/2022 10:00 to 9:10 100.56 100.56 100.72 100.77 100.77 100.66
11/21/2022 09:00 to 8:10 100.85 100.70 100.38 100.13 99.86 99.70
11/21/2022 08:00 to 7:10 100.29 100.56 100.70 100.79 100.77 100.85
11/21/2022 07:00 to 6:10 100.89 100.83 100.66 100.68 100.54 100.36
11/21/2022 06:00 to 5:10 100.23 100.11 99.98 99.53 99.33 98.85
11/21/2022 05:00 to 4:10 98.38 98.34 98.34 98.88 98.88 99.35
11/21/2022 04:00 to 3:10 99.37 99.35 99.04 99.12 98.94 98.83
11/21/2022 03:00 to 2:10 98.73 98.75 98.63 98.77 98.61 98.38
11/21/2022 02:00 to 1:10 98.09 97.74 97.42 96.82 96.18 95.59
11/21/2022 01:00 to 0:10 94.79 94.05 93.12 91.81 90.76 90.88
11/21/2022 00:00 to 23:10 91.33 91.97 92.53 92.65 92.71 92.77
11/20/2022 23:00 to 22:10 93.14 93.22 92.85 91.44 90.70 90.82
11/20/2022 22:00 to 21:10 90.59 90.29 90.45 90.92 91.35 91.95
11/20/2022 21:00 to 20:10 92.59 93.22 93.98 94.00 94.03 93.66
11/20/2022 20:00 to 19:10 92.63 91.50 90.72 90.74 90.90 91.17
11/20/2022 19:00 to 18:10 91.33 91.91 92.42 93.31 92.87 91.99
11/20/2022 18:00 to 17:10 91.05 90.24 89.11 88.83 88.97 89.40
11/20/2022 17:00 to 16:10 89.87 90.12 90.72 91.07 91.09 91.48
11/20/2022 16:00 to 15:10 91.77 92.20 92.77 93.35 94.09 94.89
11/20/2022 15:00 to 14:10 95.81 96.64 97.56 98.16 98.65 98.55
11/20/2022 14:00 to 13:10 98.42 97.93 97.79 97.83 98.34 98.40
11/20/2022 13:00 to 12:10 98.30 98.14 98.01 97.93 97.68 97.60
11/20/2022 12:00 to 11:10 97.60 97.35 97.11 96.88 96.24 95.11
11/20/2022 11:00 to 10:10 93.94 93.70 94.33 94.77 95.44 95.85
11/20/2022 10:00 to 9:10 96.31 97.03 97.62 98.24 98.42 98.83
11/20/2022 09:00 to 8:10 99.08 99.37 99.70 99.88 100.07 100.21
11/20/2022 08:00 to 7:10 100.15 100.09 99.80 99.86 99.84 99.92
11/20/2022 07:00 to 6:10 99.92 99.74 99.84 99.88 99.72 99.78
11/20/2022 06:00 to 5:10 99.76 99.94 100.33 100.23 100.48 100.64
11/20/2022 05:00 to 4:10 100.54 100.27 100.13 100.03 100.03 99.86
11/20/2022 04:00 to 3:10 99.94 99.84 99.82 99.66 99.49 99.55
11/20/2022 03:00 to 2:10 99.55 99.53 99.37 99.33 99.08 98.94
11/20/2022 02:00 to 1:10 98.59 98.09 98.30 98.46 99.04 99.00
11/20/2022 01:00 to 0:10 99.18 99.10 98.98 98.88 98.61 98.26
11/20/2022 00:00 to 23:10 98.03 97.50 97.48 96.80 96.00 94.72
11/19/2022 23:00 to 22:10 93.78 93.22 92.55 91.27 90.86 91.31
11/19/2022 22:00 to 21:10 91.42 91.40 92.07 92.03 91.79 92.01
11/19/2022 21:00 to 20:10 92.40 92.50 92.18 91.58 91.70 90.43
11/19/2022 20:00 to 19:10 89.26 89.46 89.61 89.75 89.53 89.79
11/19/2022 19:00 to 18:10 90.16 90.57 90.96 91.03 90.86 91.13
11/19/2022 18:00 to 17:10 91.72 91.54 91.46 91.52 91.37 90.94
11/19/2022 17:00 to 16:10 90.68 91.09 91.60 92.26 92.36 92.67
11/19/2022 16:00 to 15:10 93.24 94.17 95.83 97.07 97.62 96.98
11/19/2022 15:00 to 14:10 96.29 96.41 96.94 97.21 97.56 97.50
11/19/2022 14:00 to 13:10 97.35 97.70 98.14 98.48 99.10 99.39
11/19/2022 13:00 to 12:10 99.43 99.27 99.00 99.14 98.59 98.28
11/19/2022 12:00 to 11:10 98.40 98.51 98.44 98.38 98.26 98.69
11/19/2022 11:00 to 10:10 99.04 99.53 99.45 99.24 99.20 98.85
11/19/2022 10:00 to 9:10 98.40 98.14 98.09 98.67 99.10 98.98
11/19/2022 09:00 to 8:10 99.04 98.65 98.51 98.65 98.42 98.59
11/19/2022 08:00 to 7:10 98.59 98.96 99.08 99.31 99.45 99.53
11/19/2022 07:00 to 6:10 99.45 99.55 99.68 100.23 100.31 100.29
11/19/2022 06:00 to 5:10 100.27 100.01 99.88 99.78 99.72 99.72
11/19/2022 05:00 to 4:10 99.47 99.55 99.70 99.94 100.29 100.25
11/19/2022 04:00 to 3:10 100.19 100.19 100.07 99.84 99.64 99.43
11/19/2022 03:00 to 2:10 99.06 98.61 98.57 98.36 97.97 97.68
11/19/2022 02:00 to 1:10 97.62 97.74 97.62 97.70 98.18 98.51
11/19/2022 01:00 to 0:10 98.61 98.59 98.48 98.22 98.30 98.05
11/19/2022 00:00 to 23:10 98.09 97.62 97.50 97.66 97.72 97.79
11/18/2022 23:00 to 22:10 97.60 97.54 97.60 97.99 98.11 98.18
11/18/2022 22:00 to 21:10 98.07 97.95 97.38 96.88 96.66 96.27
11/18/2022 21:00 to 20:10 96.04 95.44 94.81 93.96 93.16 92.67
11/18/2022 20:00 to 19:10 92.16 92.16 92.09 92.48 92.69 92.67
11/18/2022 19:00 to 18:10 92.87 93.00 93.53 93.66 94.03 94.07
11/18/2022 18:00 to 17:10 94.15 94.09 94.29 94.74 95.01 95.48
11/18/2022 17:00 to 16:10 95.83 96.18 96.18 95.92 96.43 96.76
11/18/2022 16:00 to 15:10 97.35 97.99 98.30 98.85 99.14 99.45
11/18/2022 15:00 to 14:10 99.61 99.94 100.25 100.36 100.46 100.62
11/18/2022 14:00 to 13:10 100.62 100.54 100.46 100.33 100.17 99.78
11/18/2022 13:00 to 12:10 99.74 99.31 99.33 99.00 98.98 99.00
11/18/2022 12:00 to 11:10 99.02 98.81 98.77 98.63 98.61 98.22
11/18/2022 11:00 to 10:10 97.81 97.66 97.64 97.62 97.85 97.93
11/18/2022 10:00 to 9:10 97.81 97.83 97.89 97.97 97.79 97.99
11/18/2022 09:00 to 8:10 97.97 97.89 97.87 97.97 97.83 97.25
11/18/2022 08:00 to 7:10 96.51 95.42 94.27 93.41 92.90 92.50
11/18/2022 07:00 to 6:10 92.26 92.05 91.91 91.66 91.87 92.26
11/18/2022 06:00 to 5:10 92.53 93.16 93.39 93.45 93.39 93.20
11/18/2022 05:00 to 4:10 93.02 92.26 91.46 91.13 90.96 91.09
11/18/2022 04:00 to 3:10 91.31 91.81 91.27 91.05 90.84 91.15
11/18/2022 03:00 to 2:10 91.07 91.15 91.09 91.25 91.40 91.23
11/18/2022 02:00 to 1:10 91.33 91.23 91.64 91.74 92.32 92.34
11/18/2022 01:00 to 0:10 92.32 92.16 92.46 92.55 92.55 92.40
11/18/2022 00:00 to 23:10 92.53 93.12 93.37 93.76 94.31 94.60
11/17/2022 23:00 to 22:10 94.70 94.62 94.21 93.82 93.35 93.16
11/17/2022 22:00 to 21:10 93.22 92.85 91.79 90.35 90.14 90.35
11/17/2022 21:00 to 20:10 89.90 89.53 88.93 88.70 89.09 89.57
11/17/2022 20:00 to 19:10 90.20 90.55 90.49 89.36 88.29 88.11
11/17/2022 19:00 to 18:10 88.48 88.74 89.44 90.39 91.07 91.62
11/17/2022 18:00 to 17:10 91.33 91.23 91.00 91.15 91.50 92.34
11/17/2022 17:00 to 16:10 93.43 94.13 94.60 95.09 95.48 95.63
11/17/2022 16:00 to 15:10 95.83 95.16 94.05 93.39 93.00 91.68
11/17/2022 15:00 to 14:10 90.57 88.85 87.08 87.80 88.31 88.79
11/17/2022 14:00 to 13:10 89.01 89.26 89.09 89.24 89.48 89.73
11/17/2022 13:00 to 12:10 89.79 90.22 90.59 90.86 91.23 91.58
11/17/2022 12:00 to 11:10 91.95 92.11 91.87 91.91 92.05 92.07
11/17/2022 11:00 to 10:10 92.16 92.26 92.28 92.34 92.01 91.93
11/17/2022 10:00 to 9:10 91.72 92.01 92.42 92.81 93.18 93.72
11/17/2022 09:00 to 8:10 93.68 93.64 93.74 94.17 94.40 94.33
11/17/2022 08:00 to 7:10 94.05 94.05 93.92 94.09 94.27 94.40
11/17/2022 07:00 to 6:10 94.19 93.96 93.96 93.96 93.43 93.68
11/17/2022 06:00 to 5:10 93.82 94.46 95.48 95.98 95.98 95.69
11/17/2022 05:00 to 4:10 94.91 93.70 93.06 93.53 93.90 94.66
11/17/2022 04:00 to 3:10 95.69 96.31 96.90 97.19 97.81 97.89
11/17/2022 03:00 to 2:10 98.18 98.28 98.28 97.81 97.27 96.90
11/17/2022 02:00 to 1:10 96.29 95.51 95.48 95.81 96.49 97.07
11/17/2022 01:00 to 0:10 97.52 97.38 96.96 96.35 95.40 94.54